Great Falls, MT

1:32 PM MST on March 05, 2015 (GMT -0700)
Great Falls South SIde | Change Station
CLOSE
Current Station
Personal Weather Station
Location: Great Falls, MT
Elevation: 3399 ft
Nearby Weather Stations

Elev 3399 ft 47.50 °N, 111.27 °W | Updated 5 seconds ago

Clear
Clear
50.9 °F
Feels Like 50.9 °F
N
7.0
Wind Variable Wind from WSW
Gusts 18.0 mph

Today
High -- | Low -- °F
--% Chance of Precip.
Yesterday
High -- | Low -- °F
Precip. -- in
6:58 AM 6:15 PM
Full, 100% visible
Pressure 30.17 in
Visibility 10.0 miles
Clouds Clear
Dew Point 11 °F
Humidity 20%
Rainfall in
Snow Depth Not available.
UV 5 out of 12
Pollen 3.80 out of 12
Air Quality Not available.
Flu Activity Not available.
METAR KGTF 051953Z 25019G28KT 10SM CLR 11/M13 A3009 RMK AO2 PK WND 24028/1946 SLP217 T01061133

More Conditions Fewer Conditions

Pressure 30.17 in
Visibility 10.0 miles
Clouds Clear
Dew Point 11 °F
Humidity 20%
Rainfall in
Snow Depth Not available.
UV 5 out of 12
Pollen 3.80 out of 12
Air Quality Not available.
Flu Activity Not available.
METAR KGTF 051953Z 25019G28KT 10SM CLR 11/M13 A3009 RMK AO2 PK WND 24028/1946 SLP217 T01061133

More Conditions Fewer Conditions

10-Day Weather Forecast

Almanac

Astronomy

Mar. 05, 2015 Rise Set
Actual Time
Civil Twilight
Nautical Twilight
Astronomical Twilight
Moon
Length of Visible Light
Length of Day
Tomorrow will be .
, % of the Moon is Illuminated

Today's Extremes

State Highs State Lows

Community

WunderPhotos

Upload Photos

1,802,952 photos uploaded!

WunderBlogs® & News

Nearby

Air Quality

  Air Quality AQ Index Pollutant
Not available.

Snow Depth

Station Depth Elevation

Earthquake Activity

City Distance Mag. Time & Date
Minimum magnitude displayed is 2.5.

Coastal Water Temperatures

Place Temperature

Nearby Weather Stations